Time;durP1;ratioP1;P1;durP2;ratioP2;P2;SDS_P1;SDS_P2;PMS_P1;PMS_P2;Temp;Humidity;BMP_temperature;BMP_pressure;BME280_temperature;BME280_humidity;BME280_pressure;Samples;Min_cycle;Max_cycle;Signal;HPM_P1;HPM_P2
2023/10/28 00:00:58;;;;;;;0.10;0.10;;;;;;;;;;4886728;29;20417;-88
2023/10/28 00:03:27;;;;;;;0.10;0.10;;;;;;;;;;4889347;29;20043;-88
2023/10/28 00:05:54;;;;;;;0.57;0.57;;;;;;;;;;4889332;29;20039;-88
2023/10/28 00:08:19;;;;;;;0.20;0.20;;;;;;;;;;4904853;29;20062;-88
2023/10/28 00:10:48;;;;;;;0.38;0.38;;;;;;;;;;4904689;29;20036;-88
2023/10/28 00:13:14;;;;;;;0.10;0.10;;;;;;;;;;4889178;29;20047;-87
2023/10/28 00:15:40;;;;;;;0.15;0.15;;;;;;;;;;4904809;29;20119;-88
2023/10/28 00:18:08;;;;;;;0.10;0.10;;;;;;;;;;4904553;29;20449;-88
2023/10/28 00:20:35;;;;;;;0.10;0.10;;;;;;;;;;4904944;29;20050;-88
2023/10/28 00:23:03;;;;;;;0.10;0.10;;;;;;;;;;4889475;29;20051;-87
2023/10/28 00:25:31;;;;;;;0.10;0.10;;;;;;;;;;4889054;29;20044;-88
2023/10/28 00:27:57;;;;;;;0.10;0.10;;;;;;;;;;4888978;29;20047;-88
2023/10/28 00:30:23;;;;;;;0.10;0.10;;;;;;;;;;4904222;29;20070;-88
2023/10/28 00:32:50;;;;;;;0.10;0.10;;;;;;;;;;4920005;29;20462;-88
2023/10/28 00:35:16;;;;;;;0.10;0.10;;;;;;;;;;4904386;29;20098;-87
2023/10/28 00:37:42;;;;;;;0.20;0.20;;;;;;;;;;4888720;29;20074;-89
2023/10/28 00:40:08;;;;;;;1.55;0.30;;;;;;;;;;4904082;29;20150;-88
2023/10/28 00:42:35;;;;;;;0.10;0.10;;;;;;;;;;4904360;29;20040;-89
2023/10/28 00:45:08;;;;;;;0.10;0.10;;;;;;;;;;4904507;29;20050;-89
2023/10/28 00:47:35;;;;;;;0.10;0.10;;;;;;;;;;4904648;29;20043;-89
2023/10/28 00:50:01;;;;;;;0.10;0.10;;;;;;;;;;4919763;29;20434;-88
2023/10/28 00:52:27;;;;;;;0.10;0.10;;;;;;;;;;4904286;29;20092;-88
2023/10/28 00:54:54;;;;;;;0.10;0.10;;;;;;;;;;4888466;29;20043;-89
2023/10/28 00:57:20;;;;;;;0.10;0.10;;;;;;;;;;4888419;29;20082;-89
2023/10/28 00:59:46;;;;;;;0.10;0.10;;;;;;;;;;4888469;29;20413;-89
2023/10/28 01:02:12;;;;;;;0.20;0.20;;;;;;;;;;4903997;29;20040;-89
2023/10/28 01:04:38;;;;;;;0.10;0.10;;;;;;;;;;4903930;29;20044;-89
2023/10/28 01:07:04;;;;;;;0.10;0.10;;;;;;;;;;4904007;29;20044;-89
2023/10/28 01:09:30;;;;;;;0.10;0.10;;;;;;;;;;4888430;29;20046;-89
2023/10/28 01:11:57;;;;;;;0.28;0.28;;;;;;;;;;4903260;29;20442;-89
2023/10/28 01:14:23;;;;;;;0.10;0.10;;;;;;;;;;4903050;29;20119;-89
2023/10/28 01:16:49;;;;;;;0.43;0.40;;;;;;;;;;4903707;29;20497;-89
2023/10/28 01:19:15;;;;;;;0.10;0.10;;;;;;;;;;4887722;29;20048;-89
2023/10/28 01:21:42;;;;;;;0.10;0.10;;;;;;;;;;4903511;29;20043;-89
2023/10/28 01:24:08;;;;;;;0.10;0.10;;;;;;;;;;4903563;29;20036;-89
2023/10/28 01:26:38;;;;;;;0.20;0.20;;;;;;;;;;4903575;29;20043;-88
2023/10/28 01:29:05;;;;;;;0.30;0.30;;;;;;;;;;4887967;29;20149;-88
2023/10/28 01:31:31;;;;;;;0.10;0.10;;;;;;;;;;4887806;29;20154;-88
2023/10/28 01:33:57;;;;;;;0.20;0.20;;;;;;;;;;4903384;29;20207;-87
2023/10/28 01:36:23;;;;;;;0.10;0.10;;;;;;;;;;4919130;29;20048;-87
2023/10/28 01:38:49;;;;;;;0.20;0.20;;;;;;;;;;4902990;29;20040;-87
2023/10/28 01:41:16;;;;;;;0.30;0.30;;;;;;;;;;4918758;29;20339;-87
2023/10/28 01:43:46;;;;;;;0.10;0.10;;;;;;;;;;4903502;29;20493;-87
2023/10/28 01:46:12;;;;;;;0.10;0.10;;;;;;;;;;4903330;29;20036;-88
2023/10/28 01:48:38;;;;;;;0.10;0.10;;;;;;;;;;4903379;29;20055;-88
2023/10/28 01:51:04;;;;;;;0.10;0.10;;;;;;;;;;4918531;29;20052;-87
2023/10/28 01:53:30;;;;;;;0.20;0.20;;;;;;;;;;4902817;29;20051;-88
2023/10/28 01:55:58;;;;;;;0.10;0.10;;;;;;;;;;4902943;29;20055;-87
2023/10/28 01:58:24;;;;;;;0.20;0.20;;;;;;;;;;4902665;29;20044;-87
2023/10/28 02:00:50;;;;;;;0.10;0.10;;;;;;;;;;4902816;29;20103;-89
2023/10/28 02:03:16;;;;;;;0.10;0.10;;;;;;;;;;4902829;29;20036;-89
2023/10/28 02:05:42;;;;;;;0.10;0.10;;;;;;;;;;4902693;29;20051;-89
2023/10/28 02:08:08;;;;;;;0.10;0.10;;;;;;;;;;4887163;29;20053;-88
2023/10/28 02:10:34;;;;;;;0.10;0.10;;;;;;;;;;4918158;29;20412;-88
2023/10/28 02:13:00;;;;;;;0.10;0.10;;;;;;;;;;4902704;29;20047;-88
2023/10/28 02:15:26;;;;;;;0.32;0.32;;;;;;;;;;4918183;29;20047;-89
2023/10/28 02:17:54;;;;;;;0.40;0.40;;;;;;;;;;4902641;29;20469;-90
2023/10/28 02:20:20;;;;;;;0.10;0.10;;;;;;;;;;4886846;29;20086;-90
2023/10/28 02:22:46;;;;;;;0.10;0.10;;;;;;;;;;4902277;29;20060;-90
2023/10/28 02:25:12;;;;;;;0.30;0.30;;;;;;;;;;4902333;29;20075;-89
2023/10/28 02:27:40;;;;;;;0.10;0.10;;;;;;;;;;4902769;29;20047;-89
2023/10/28 02:30:07;;;;;;;0.10;0.10;;;;;;;;;;4917860;29;20051;-89
2023/10/28 02:32:33;;;;;;;0.10;0.10;;;;;;;;;;4886956;29;20128;-89
2023/10/28 02:35:02;;;;;;;0.10;0.10;;;;;;;;;;4902236;29;20127;-89
2023/10/28 02:37:29;;;;;;;0.25;0.25;;;;;;;;;;4902741;29;20044;-89
2023/10/28 02:39:55;;;;;;;0.13;0.13;;;;;;;;;;4902471;29;20424;-89
2023/10/28 02:42:22;;;;;;;0.10;0.10;;;;;;;;;;4902395;29;20040;-89
2023/10/28 02:44:48;;;;;;;0.30;0.30;;;;;;;;;;4934924;29;20122;-90
2023/10/28 02:47:15;;;;;;;0.20;0.20;;;;;;;;;;4902474;29;20031;-89
2023/10/28 02:49:41;;;;;;;0.40;0.40;;;;;;;;;;4902390;29;20570;-89
2023/10/28 02:52:07;;;;;;;0.20;0.20;;;;;;;;;;4902248;29;20043;-89
2023/10/28 02:54:33;;;;;;;0.20;0.20;;;;;;;;;;4886584;29;20055;-89
2023/10/28 02:57:00;;;;;;;0.10;0.10;;;;;;;;;;4917653;29;20066;-89
2023/10/28 02:59:27;;;;;;;0.10;0.10;;;;;;;;;;4886604;29;20048;-89
2023/10/28 03:01:53;;;;;;;0.20;0.20;;;;;;;;;;4902099;29;20055;-89
2023/10/28 03:04:19;;;;;;;0.10;0.10;;;;;;;;;;4901987;29;20125;-89
2023/10/28 03:06:45;;;;;;;0.40;0.40;;;;;;;;;;4886332;29;20103;-89
2023/10/28 03:09:11;;;;;;;0.17;0.15;;;;;;;;;;4902173;29;20044;-89
2023/10/28 03:11:40;;;;;;;0.10;0.10;;;;;;;;;;4902234;29;20091;-89
2023/10/28 03:14:06;;;;;;;0.10;0.10;;;;;;;;;;4902151;29;20523;-89
2023/10/28 03:16:32;;;;;;;0.10;0.10;;;;;;;;;;4901947;29;20047;-89
2023/10/28 03:18:58;;;;;;;0.10;0.10;;;;;;;;;;4917273;29;20551;-90
2023/10/28 03:21:24;;;;;;;0.20;0.17;;;;;;;;;;4901895;29;20039;-89
2023/10/28 03:23:50;;;;;;;0.10;0.10;;;;;;;;;;4886298;29;20088;-89
2023/10/28 03:26:16;;;;;;;0.10;0.10;;;;;;;;;;4901849;29;20055;-89
2023/10/28 03:28:42;;;;;;;0.20;0.20;;;;;;;;;;4886317;29;20047;-89
2023/10/28 03:31:09;;;;;;;0.10;0.10;;;;;;;;;;4901758;29;20444;-89
2023/10/28 03:33:36;;;;;;;0.10;0.10;;;;;;;;;;4901823;29;20055;-89
2023/10/28 03:36:02;;;;;;;0.10;0.10;;;;;;;;;;4902502;29;20098;-89
2023/10/28 03:38:28;;;;;;;0.10;0.10;;;;;;;;;;4920796;29;20047;-89
2023/10/28 03:40:54;;;;;;;0.20;0.20;;;;;;;;;;4920908;29;20396;-89
2023/10/28 03:43:20;;;;;;;0.10;0.10;;;;;;;;;;4905306;29;20071;-89
2023/10/28 03:45:46;;;;;;;0.10;0.10;;;;;;;;;;4905086;29;20082;-89
2023/10/28 03:48:12;;;;;;;0.10;0.10;;;;;;;;;;4920830;29;20519;-89
2023/10/28 03:50:38;;;;;;;0.20;0.20;;;;;;;;;;4905000;29;20505;-89
2023/10/28 03:53:04;;;;;;;0.65;0.55;;;;;;;;;;4920687;29;20039;-89
2023/10/28 03:55:30;;;;;;;0.10;0.10;;;;;;;;;;4889496;29;20051;-89
2023/10/28 03:57:56;;;;;;;0.20;0.20;;;;;;;;;;4905071;29;20071;-89
2023/10/28 04:00:22;;;;;;;0.10;0.10;;;;;;;;;;4889142;29;20098;-89
2023/10/28 04:02:47;;;;;;;0.10;0.10;;;;;;;;;;4904830;29;20048;-89
2023/10/28 04:05:16;;;;;;;0.10;0.10;;;;;;;;;;4889636;29;20122;-89
2023/10/28 04:07:42;;;;;;;0.10;0.10;;;;;;;;;;4904938;29;20039;-89
2023/10/28 04:10:08;;;;;;;0.10;0.10;;;;;;;;;;4904779;29;20288;-89
2023/10/28 04:12:36;;;;;;;0.10;0.10;;;;;;;;;;4904757;29;20043;-89
2023/10/28 04:15:02;;;;;;;0.10;0.10;;;;;;;;;;4889235;29;20039;-89
2023/10/28 04:17:31;;;;;;;0.10;0.10;;;;;;;;;;4904651;29;20433;-89
2023/10/28 04:19:57;;;;;;;0.30;0.30;;;;;;;;;;4920156;29;20170;-89
2023/10/28 04:22:24;;;;;;;0.15;0.15;;;;;;;;;;4904868;29;20036;-89
2023/10/28 04:24:50;;;;;;;0.10;0.10;;;;;;;;;;4904599;29;20048;-88
2023/10/28 04:27:16;;;;;;;0.20;0.20;;;;;;;;;;4904622;29;20043;-88
2023/10/28 04:29:42;;;;;;;0.20;0.20;;;;;;;;;;4904191;29;20059;-88
2023/10/28 04:32:08;;;;;;;0.22;0.22;;;;;;;;;;4904469;29;20043;-88
2023/10/28 04:34:34;;;;;;;0.55;0.55;;;;;;;;;;4904350;29;20560;-88
2023/10/28 04:37:00;;;;;;;0.28;0.28;;;;;;;;;;4888995;29;20374;-88
2023/10/28 04:39:26;;;;;;;0.20;0.20;;;;;;;;;;4904224;29;20055;-88
2023/10/28 04:41:55;;;;;;;0.10;0.10;;;;;;;;;;4920164;29;20043;-87
2023/10/28 04:44:21;;;;;;;0.10;0.10;;;;;;;;;;4889364;29;20338;-88
2023/10/28 04:46:48;;;;;;;0.10;0.10;;;;;;;;;;4888768;29;20089;-88
2023/10/28 04:49:14;;;;;;;0.30;0.30;;;;;;;;;;4904203;29;20039;-88
2023/10/28 04:51:40;;;;;;;0.32;0.32;;;;;;;;;;4888496;29;20327;-88
2023/10/28 04:54:06;;;;;;;0.30;0.30;;;;;;;;;;4919639;29;20121;-88
2023/10/28 04:56:32;;;;;;;0.20;0.20;;;;;;;;;;4904242;29;20108;-88
2023/10/28 04:58:58;;;;;;;0.15;0.15;;;;;;;;;;4888133;29;20054;-88
2023/10/28 05:01:24;;;;;;;0.10;0.10;;;;;;;;;;4904207;29;20047;-88
2023/10/28 05:03:50;;;;;;;0.10;0.10;;;;;;;;;;4904497;29;20044;-89
2023/10/28 05:06:16;;;;;;;0.10;0.10;;;;;;;;;;4904126;29;20608;-89
2023/10/28 05:08:42;;;;;;;0.10;0.10;;;;;;;;;;4919431;29;20043;-89
2023/10/28 05:11:08;;;;;;;0.10;0.10;;;;;;;;;;4903677;29;20044;-89
2023/10/28 05:13:34;;;;;;;0.47;0.47;;;;;;;;;;4888103;29;20048;-89
2023/10/28 05:16:00;;;;;;;0.10;0.10;;;;;;;;;;4919593;29;20050;-89
2023/10/28 05:18:27;;;;;;;0.10;0.10;;;;;;;;;;4903621;29;20512;-89
2023/10/28 05:20:53;;;;;;;0.17;0.17;;;;;;;;;;4887982;29;20042;-89
2023/10/28 05:23:20;;;;;;;0.10;0.10;;;;;;;;;;4919644;29;20058;-89
2023/10/28 05:25:46;;;;;;;0.20;0.20;;;;;;;;;;4903469;29;20063;-89
2023/10/28 05:28:12;;;;;;;0.10;0.10;;;;;;;;;;4903764;29;20058;-89
2023/10/28 05:30:38;;;;;;;0.10;0.10;;;;;;;;;;4903300;29;20064;-89
2023/10/28 05:33:04;;;;;;;0.10;0.10;;;;;;;;;;4887799;29;20406;-89
2023/10/28 05:35:30;;;;;;;0.10;0.10;;;;;;;;;;4903450;29;20047;-89
2023/10/28 05:37:58;;;;;;;0.10;0.10;;;;;;;;;;4903170;29;20095;-89
2023/10/28 05:40:23;;;;;;;0.20;0.20;;;;;;;;;;4887523;29;20533;-91
2023/10/28 05:42:49;;;;;;;0.10;0.10;;;;;;;;;;4918873;29;20079;-89
2023/10/28 05:45:15;;;;;;;0.10;0.10;;;;;;;;;;4918792;29;20040;-89
2023/10/28 05:47:41;;;;;;;0.10;0.10;;;;;;;;;;4887695;29;20043;-89
2023/10/28 05:50:08;;;;;;;0.10;0.10;;;;;;;;;;4903127;29;20054;-88
2023/10/28 05:52:34;;;;;;;0.10;0.10;;;;;;;;;;4918643;29;20052;-90
2023/10/28 05:55:01;;;;;;;0.10;0.10;;;;;;;;;;4902644;29;20036;-88
2023/10/28 05:57:27;;;;;;;0.10;0.10;;;;;;;;;;4918628;29;20122;-87
2023/10/28 05:59:53;;;;;;;0.15;0.15;;;;;;;;;;4917826;29;20497;-87
2023/10/28 06:02:19;;;;;;;0.10;0.10;;;;;;;;;;4918528;29;20047;-88
2023/10/28 06:04:45;;;;;;;0.10;0.10;;;;;;;;;;4887114;29;20536;-88
2023/10/28 06:07:11;;;;;;;0.10;0.10;;;;;;;;;;4918355;29;20044;-88
2023/10/28 06:09:37;;;;;;;0.28;0.28;;;;;;;;;;4886987;29;20047;-88
2023/10/28 06:12:03;;;;;;;0.30;0.22;;;;;;;;;;4918310;29;20082;-88
2023/10/28 06:14:30;;;;;;;0.30;0.20;;;;;;;;;;4902532;29;20092;-87
2023/10/28 06:16:57;;;;;;;0.10;0.10;;;;;;;;;;4887314;29;20084;-89
2023/10/28 06:19:23;;;;;;;0.10;0.10;;;;;;;;;;4902674;29;20044;-89
2023/10/28 06:21:51;;;;;;;0.10;0.10;;;;;;;;;;4902914;29;20083;-88
2023/10/28 06:24:18;;;;;;;0.10;0.10;;;;;;;;;;4886962;29;20049;-88
2023/10/28 06:26:46;;;;;;;0.10;0.10;;;;;;;;;;4902914;29;20044;-89
2023/10/28 06:29:13;;;;;;;0.20;0.20;;;;;;;;;;4902494;29;20078;-89
2023/10/28 06:31:39;;;;;;;0.17;0.17;;;;;;;;;;4902393;29;20071;-89
2023/10/28 06:34:05;;;;;;;0.20;0.20;;;;;;;;;;4918275;29;20397;-88
2023/10/28 06:36:33;;;;;;;0.28;0.28;;;;;;;;;;4886839;29;20067;-88
2023/10/28 06:38:59;;;;;;;0.10;0.10;;;;;;;;;;4886706;29;20409;-89
2023/10/28 06:41:25;;;;;;;0.10;0.10;;;;;;;;;;4886997;29;20520;-88
2023/10/28 06:43:52;;;;;;;0.20;0.20;;;;;;;;;;4886799;29;20040;-88
2023/10/28 06:46:19;;;;;;;0.13;0.13;;;;;;;;;;4886721;29;20039;-88
2023/10/28 06:48:46;;;;;;;0.10;0.10;;;;;;;;;;4902112;29;20117;-88
2023/10/28 06:51:12;;;;;;;0.10;0.10;;;;;;;;;;4901942;29;20054;-88
2023/10/28 06:53:40;;;;;;;0.10;0.10;;;;;;;;;;4917848;29;20043;-89
2023/10/28 06:56:07;;;;;;;0.20;0.20;;;;;;;;;;4917686;29;20501;-89
2023/10/28 06:58:33;;;;;;;0.10;0.10;;;;;;;;;;4901957;29;20497;-90
2023/10/28 07:00:59;;;;;;;0.20;0.20;;;;;;;;;;4886461;29;20106;-89
2023/10/28 07:03:26;;;;;;;0.10;0.10;;;;;;;;;;4917731;29;20039;-91
2023/10/28 07:05:52;;;;;;;0.10;0.10;;;;;;;;;;4917695;29;20527;-90
2023/10/28 07:08:19;;;;;;;0.10;0.10;;;;;;;;;;4901875;29;20052;-90
2023/10/28 07:10:45;;;;;;;0.10;0.10;;;;;;;;;;4903983;29;20039;-88
2023/10/28 07:13:12;;;;;;;0.10;0.10;;;;;;;;;;4890246;29;20048;-88
2023/10/28 07:15:38;;;;;;;0.10;0.10;;;;;;;;;;4921490;29;20047;-87
2023/10/28 07:18:07;;;;;;;0.10;0.10;;;;;;;;;;4905802;29;20413;-87
2023/10/28 07:20:33;;;;;;;0.10;0.10;;;;;;;;;;4905399;29;20126;-88
2023/10/28 07:23:02;;;;;;;0.20;0.20;;;;;;;;;;4890054;29;20050;-89
2023/10/28 07:25:29;;;;;;;0.47;0.35;;;;;;;;;;4890670;29;20044;-87
2023/10/28 07:27:55;;;;;;;0.20;0.20;;;;;;;;;;4905747;29;20046;-86
2023/10/28 07:30:22;;;;;;;0.10;0.10;;;;;;;;;;4918958;29;20087;-89
2023/10/28 07:32:48;;;;;;;0.10;0.10;;;;;;;;;;4905591;29;20122;-90
2023/10/28 07:35:16;;;;;;;0.10;0.10;;;;;;;;;;4905534;29;20095;-90
2023/10/28 07:37:42;;;;;;;0.10;0.10;;;;;;;;;;4889921;29;20046;-90
2023/10/28 07:40:11;;;;;;;0.10;0.10;;;;;;;;;;4905249;29;20036;-90
2023/10/28 07:42:37;;;;;;;0.10;0.10;;;;;;;;;;4920974;29;20378;-90
2023/10/28 07:45:04;;;;;;;0.10;0.10;;;;;;;;;;4905311;29;20082;-90
2023/10/28 07:47:31;;;;;;;0.10;0.10;;;;;;;;;;4920743;29;20054;-89
2023/10/28 07:49:57;;;;;;;0.10;0.10;;;;;;;;;;4905474;29;20114;-90
2023/10/28 07:52:23;;;;;;;0.20;0.20;;;;;;;;;;4889771;29;20082;-90
2023/10/28 07:54:49;;;;;;;0.10;0.10;;;;;;;;;;4936613;29;20052;-90
2023/10/28 07:57:15;;;;;;;0.20;0.20;;;;;;;;;;4936641;29;20067;-90
2023/10/28 07:59:42;;;;;;;0.20;0.20;;;;;;;;;;4904950;29;20047;-90
2023/10/28 08:02:07;;;;;;;0.10;0.10;;;;;;;;;;4889463;29;20048;-89
2023/10/28 08:04:33;;;;;;;0.10;0.10;;;;;;;;;;4937701;29;20157;-89
2023/10/28 08:07:00;;;;;;;0.10;0.10;;;;;;;;;;4905259;29;20459;-91
2023/10/28 08:09:28;;;;;;;0.10;0.10;;;;;;;;;;4905020;29;20047;-89
2023/10/28 08:11:54;;;;;;;0.10;0.10;;;;;;;;;;4904791;29;20036;-89
2023/10/28 08:14:20;;;;;;;0.10;0.10;;;;;;;;;;4936383;29;20396;-89
2023/10/28 08:16:46;;;;;;;0.10;0.10;;;;;;;;;;4936160;29;20142;-89
2023/10/28 08:19:12;;;;;;;0.10;0.10;;;;;;;;;;4903037;29;20043;-89
2023/10/28 08:21:38;;;;;;;0.20;0.20;;;;;;;;;;4903694;29;20067;-89
2023/10/28 08:24:05;;;;;;;0.10;0.10;;;;;;;;;;4912490;29;20051;-89
2023/10/28 08:26:31;;;;;;;0.10;0.10;;;;;;;;;;4917226;29;20370;-89
2023/10/28 08:29:00;;;;;;;0.10;0.10;;;;;;;;;;4928874;28;20047;-89
2023/10/28 08:31:27;;;;;;;0.10;0.10;;;;;;;;;;4923745;29;20035;-89
2023/10/28 08:33:53;;;;;;;0.10;0.10;;;;;;;;;;4938865;29;20086;-90
2023/10/28 08:36:19;;;;;;;0.10;0.10;;;;;;;;;;4901320;29;20040;-89
2023/10/28 08:38:47;;;;;;;0.10;0.10;;;;;;;;;;4931352;29;20036;-91
2023/10/28 08:41:16;;;;;;;0.20;0.20;;;;;;;;;;4885890;29;20044;-91
2023/10/28 08:43:45;;;;;;;0.10;0.10;;;;;;;;;;4874809;29;20046;-91
2023/10/28 08:46:11;;;;;;;0.10;0.10;;;;;;;;;;4888443;29;20072;-90
2023/10/28 08:48:38;;;;;;;0.20;0.20;;;;;;;;;;4903442;29;20075;-90
2023/10/28 08:51:04;;;;;;;0.20;0.20;;;;;;;;;;4904306;29;20052;-90
2023/10/28 08:53:30;;;;;;;0.20;0.20;;;;;;;;;;4919755;29;20039;-89
2023/10/28 08:55:58;;;;;;;0.10;0.10;;;;;;;;;;4888371;29;20404;-89
2023/10/28 08:58:25;;;;;;;0.10;0.10;;;;;;;;;;4919301;29;20058;-90
2023/10/28 09:00:51;;;;;;;0.28;0.28;;;;;;;;;;4888185;29;20039;-90
2023/10/28 09:03:22;;;;;;;0.10;0.10;;;;;;;;;;4903898;29;20042;-89
2023/10/28 09:05:49;;;;;;;0.10;0.10;;;;;;;;;;4907202;29;20399;-89
2023/10/28 09:08:15;;;;;;;0.10;0.10;;;;;;;;;;4922806;29;20053;-89
2023/10/28 09:10:45;;;;;;;0.10;0.10;;;;;;;;;;4938125;29;20126;-90
2023/10/28 09:13:12;;;;;;;0.10;0.10;;;;;;;;;;4895566;29;20048;-89
2023/10/28 09:15:38;;;;;;;0.10;0.10;;;;;;;;;;4920329;29;20047;-89
2023/10/28 09:18:04;;;;;;;0.10;0.10;;;;;;;;;;4922393;29;20405;-89
2023/10/28 09:20:30;;;;;;;0.10;0.10;;;;;;;;;;4938162;29;20035;-90
2023/10/28 09:22:56;;;;;;;0.20;0.20;;;;;;;;;;4907012;29;20362;-90
2023/10/28 09:25:22;;;;;;;0.10;0.10;;;;;;;;;;4937995;29;20043;-91
2023/10/28 09:27:48;;;;;;;0.10;0.10;;;;;;;;;;4906796;29;20058;-90
2023/10/28 09:30:15;;;;;;;0.10;0.10;;;;;;;;;;4922591;29;20107;-89
2023/10/28 09:32:41;;;;;;;0.10;0.10;;;;;;;;;;4899980;29;20549;-90
2023/10/28 09:35:08;;;;;;;0.10;0.10;;;;;;;;;;4899425;29;20188;-90
2023/10/28 09:37:40;;;;;;;0.10;0.10;;;;;;;;;;4899815;29;20044;-89
2023/10/28 09:40:07;;;;;;;0.10;0.10;;;;;;;;;;4923619;29;20048;-89
2023/10/28 09:42:34;;;;;;;0.10;0.10;;;;;;;;;;4915778;29;20179;-90
2023/10/28 09:45:00;;;;;;;0.10;0.10;;;;;;;;;;4915696;29;20040;-90
2023/10/28 09:47:29;;;;;;;0.10;0.10;;;;;;;;;;4915378;29;20040;-88
2023/10/28 09:50:00;;;;;;;0.10;0.10;;;;;;;;;;4915119;29;20047;-89
2023/10/28 09:52:28;;;;;;;0.10;0.10;;;;;;;;;;4915381;29;20048;-89
2023/10/28 09:54:54;;;;;;;0.10;0.10;;;;;;;;;;4914942;29;20048;-91
2023/10/28 09:57:20;;;;;;;0.25;0.25;;;;;;;;;;4915288;29;20047;-89
2023/10/28 09:59:46;;;;;;;0.20;0.20;;;;;;;;;;4930927;29;20111;-88
2023/10/28 10:02:34;;;;;;;0.30;0.30;;;;;;;;;;4915094;29;20071;-89
2023/10/28 10:05:11;;;;;;;0.10;0.10;;;;;;;;;;5109806;27;20781;-88
2023/10/28 10:07:37;;;;;;;0.10;0.10;;;;;;;;;;5092325;28;20047;-87
2023/10/28 10:10:13;;;;;;;0.20;0.20;;;;;;;;;;5080528;28;20482;-87
2023/10/28 10:12:40;;;;;;;0.10;0.10;;;;;;;;;;5057317;28;20044;-89
2023/10/28 10:15:07;;;;;;;0.10;0.10;;;;;;;;;;5072876;28;20036;-88
2023/10/28 10:17:54;;;;;;;0.10;0.10;;;;;;;;;;5071771;28;20510;-86
2023/10/28 10:20:27;;;;;;;0.10;0.10;;;;;;;;;;5088666;28;20122;-87
2023/10/28 10:23:00;;;;;;;0.10;0.10;;;;;;;;;;5054816;28;20036;-89
2023/10/28 10:25:39;;;;;;;0.10;0.10;;;;;;;;;;5072115;28;20045;-92
2023/10/28 10:28:13;;;;;;;0.10;0.10;;;;;;;;;;5053823;28;20063;-88
2023/10/28 10:30:39;;;;;;;0.20;0.20;;;;;;;;;;5051260;28;20098;-88
2023/10/28 10:33:05;;;;;;;0.10;0.10;;;;;;;;;;5086790;28;20044;-87
2023/10/28 10:35:31;;;;;;;0.20;0.20;;;;;;;;;;5088007;28;20446;-87
2023/10/28 10:38:02;;;;;;;0.20;0.20;;;;;;;;;;5070920;28;20052;-87
2023/10/28 10:40:31;;;;;;;0.57;0.57;;;;;;;;;;5087817;28;20040;-87
2023/10/28 10:42:57;;;;;;;0.20;0.20;;;;;;;;;;5071039;28;20503;-87
2023/10/28 10:45:23;;;;;;;0.17;0.17;;;;;;;;;;5070971;28;20033;-87
2023/10/28 10:47:49;;;;;;;0.10;0.10;;;;;;;;;;5071055;28;20037;-87
2023/10/28 10:50:15;;;;;;;0.10;0.10;;;;;;;;;;5070525;28;20040;-87
2023/10/28 10:52:41;;;;;;;0.10;0.10;;;;;;;;;;5070541;28;20479;-87
2023/10/28 10:55:09;;;;;;;0.20;0.20;;;;;;;;;;5070593;28;20444;-87
2023/10/28 10:57:36;;;;;;;0.17;0.17;;;;;;;;;;5087228;28;20036;-88
2023/10/28 11:00:11;;;;;;;0.20;0.20;;;;;;;;;;5070414;28;20043;-90
2023/10/28 11:02:38;;;;;;;0.30;0.30;;;;;;;;;;5054516;28;20075;-88
2023/10/28 11:05:04;;;;;;;0.17;0.17;;;;;;;;;;5053661;28;20143;-88
2023/10/28 11:07:30;;;;;;;0.10;0.10;;;;;;;;;;5053957;28;20046;-90
2023/10/28 11:09:56;;;;;;;0.10;0.10;;;;;;;;;;5070202;28;20040;-90
2023/10/28 11:12:23;;;;;;;0.20;0.20;;;;;;;;;;5070171;28;20483;-90
2023/10/28 11:14:49;;;;;;;0.17;0.17;;;;;;;;;;5066039;28;20084;-92
2023/10/28 11:17:15;;;;;;;0.10;0.10;;;;;;;;;;5041102;28;20087;-90
2023/10/28 11:19:51;;;;;;;0.10;0.10;;;;;;;;;;5057761;28;20459;-89
2023/10/28 11:22:17;;;;;;;0.10;0.10;;;;;;;;;;5075880;28;20048;-89
2023/10/28 11:24:43;;;;;;;0.10;0.10;;;;;;;;;;5071796;28;20079;-91
2023/10/28 11:27:09;;;;;;;0.20;0.20;;;;;;;;;;5057093;28;20090;-91
2023/10/28 11:29:37;;;;;;;0.10;0.10;;;;;;;;;;5056329;28;20040;-92
2023/10/28 11:32:09;;;;;;;0.10;0.10;;;;;;;;;;5057172;28;20040;-93
2023/10/28 11:34:39;;;;;;;0.10;0.10;;;;;;;;;;5056639;28;20041;-90
2023/10/28 11:37:07;;;;;;;0.10;0.10;;;;;;;;;;5053054;28;20110;-88
2023/10/28 11:39:34;;;;;;;0.10;0.10;;;;;;;;;;5036451;28;20484;-91
2023/10/28 11:42:13;;;;;;;0.20;0.20;;;;;;;;;;5073806;28;20485;-90
2023/10/28 11:44:40;;;;;;;0.10;0.10;;;;;;;;;;5056183;28;20087;-89
2023/10/28 11:47:06;;;;;;;0.20;0.20;;;;;;;;;;5053383;28;20041;-89
2023/10/28 11:49:32;;;;;;;0.10;0.10;;;;;;;;;;5070021;28;20033;-89
2023/10/28 11:52:01;;;;;;;0.10;0.10;;;;;;;;;;5072308;28;20506;-95
2023/10/28 11:54:27;;;;;;;0.10;0.10;;;;;;;;;;5040322;28;20044;-92
2023/10/28 11:56:53;;;;;;;0.10;0.10;;;;;;;;;;5056641;28;20087;-92
2023/10/28 11:59:22;;;;;;;0.10;0.10;;;;;;;;;;5057054;28;20044;-95
2023/10/28 12:01:48;;;;;;;0.10;0.10;;;;;;;;;;5043050;28;20036;-92
2023/10/28 12:04:15;;;;;;;0.15;0.15;;;;;;;;;;5056212;28;20391;-90
2023/10/28 12:06:42;;;;;;;0.10;0.10;;;;;;;;;;5056813;28;20102;-90
2023/10/28 12:09:12;;;;;;;0.10;0.10;;;;;;;;;;5040415;28;20044;-91
2023/10/28 12:11:38;;;;;;;0.10;0.10;;;;;;;;;;5056685;28;20207;-91
2023/10/28 12:14:05;;;;;;;0.20;0.20;;;;;;;;;;5056366;28;20036;-90
2023/10/28 12:16:35;;;;;;;0.10;0.10;;;;;;;;;;5056434;28;20044;-90
2023/10/28 12:19:01;;;;;;;0.10;0.10;;;;;;;;;;5072729;28;20493;-90
2023/10/28 12:21:28;;;;;;;0.10;0.10;;;;;;;;;;5039456;28;20041;-89
2023/10/28 12:23:54;;;;;;;0.15;0.15;;;;;;;;;;5039538;28;20399;-89
2023/10/28 12:26:20;;;;;;;0.10;0.10;;;;;;;;;;5038584;28;20138;-90
2023/10/28 12:28:50;;;;;;;0.10;0.10;;;;;;;;;;5055380;28;20055;-90
2023/10/28 12:31:19;;;;;;;0.57;0.50;;;;;;;;;;5072639;28;20040;-90
2023/10/28 12:33:45;;;;;;;0.10;0.10;;;;;;;;;;5055855;28;20123;-89
2023/10/28 12:36:11;;;;;;;0.10;0.10;;;;;;;;;;5055924;28;20131;-89
2023/10/28 12:38:37;;;;;;;0.20;0.20;;;;;;;;;;5039009;28;20514;-92
2023/10/28 12:41:04;;;;;;;0.10;0.10;;;;;;;;;;5072260;28;20487;-88
2023/10/28 12:43:29;;;;;;;0.10;0.10;;;;;;;;;;5071837;28;20526;-90
2023/10/28 12:45:55;;;;;;;0.10;0.10;;;;;;;;;;5055600;28;20036;-90
2023/10/28 12:48:21;;;;;;;0.20;0.20;;;;;;;;;;5055262;28;20495;-90
2023/10/28 12:50:48;;;;;;;0.10;0.10;;;;;;;;;;5055294;28;20037;-88
2023/10/28 12:53:14;;;;;;;0.10;0.10;;;;;;;;;;5054868;28;20047;-88
2023/10/28 12:55:41;;;;;;;0.10;0.10;;;;;;;;;;5054951;28;20036;-87
2023/10/28 12:58:09;;;;;;;0.10;0.10;;;;;;;;;;5071457;28;20432;-87
2023/10/28 13:00:37;;;;;;;0.10;0.10;;;;;;;;;;5055198;28;20479;-88
2023/10/28 13:03:04;;;;;;;0.10;0.10;;;;;;;;;;5038666;28;20064;-87
2023/10/28 13:05:30;;;;;;;0.10;0.10;;;;;;;;;;5071430;28;20045;-86
2023/10/28 13:07:56;;;;;;;0.10;0.10;;;;;;;;;;5054820;28;20045;-87
2023/10/28 13:10:24;;;;;;;0.10;0.10;;;;;;;;;;5071200;28;20124;-86
2023/10/28 13:12:50;;;;;;;0.10;0.10;;;;;;;;;;5071264;28;20040;-86
2023/10/28 13:15:17;;;;;;;0.10;0.10;;;;;;;;;;5038001;28;20044;-87
2023/10/28 13:17:43;;;;;;;0.10;0.10;;;;;;;;;;5054805;28;20472;-87
2023/10/28 13:20:09;;;;;;;0.10;0.10;;;;;;;;;;5071066;28;20395;-87
2023/10/28 13:22:35;;;;;;;0.10;0.10;;;;;;;;;;5054611;28;20036;-87
2023/10/28 13:25:01;;;;;;;0.20;0.20;;;;;;;;;;5054409;28;20040;-87
2023/10/28 13:27:27;;;;;;;0.10;0.10;;;;;;;;;;5037870;28;20040;-87
2023/10/28 13:29:53;;;;;;;0.10;0.10;;;;;;;;;;5070875;28;20390;-86
2023/10/28 13:32:19;;;;;;;0.10;0.10;;;;;;;;;;5054223;28;20049;-87
2023/10/28 13:34:45;;;;;;;0.10;0.10;;;;;;;;;;5054317;28;20052;-86
2023/10/28 13:37:11;;;;;;;0.10;0.10;;;;;;;;;;5070795;28;20399;-90
2023/10/28 13:39:37;;;;;;;0.55;0.55;;;;;;;;;;5037270;28;20090;-87
2023/10/28 13:42:04;;;;;;;0.10;0.10;;;;;;;;;;5054418;28;20150;-85
2023/10/28 13:44:30;;;;;;;0.10;0.10;;;;;;;;;;5054460;28;20483;-86
2023/10/28 13:46:56;;;;;;;0.10;0.10;;;;;;;;;;5070834;28;20522;-85
2023/10/28 13:49:23;;;;;;;0.10;0.10;;;;;;;;;;5070700;28;20076;-85
2023/10/28 13:51:49;;;;;;;0.17;0.17;;;;;;;;;;5070959;28;20044;-85
2023/10/28 13:54:15;;;;;;;0.10;0.10;;;;;;;;;;5070553;28;20044;-85
2023/10/28 13:56:41;;;;;;;0.10;0.10;;;;;;;;;;5054189;28;20078;-85
2023/10/28 13:59:07;;;;;;;0.10;0.10;;;;;;;;;;5070898;28;20047;-85
2023/10/28 14:01:36;;;;;;;0.10;0.10;;;;;;;;;;5054322;28;20041;-84
2023/10/28 14:04:03;;;;;;;0.10;0.10;;;;;;;;;;5070303;28;20060;-86
2023/10/28 14:06:30;;;;;;;0.10;0.10;;;;;;;;;;5054171;28;20055;-86
2023/10/28 14:08:56;;;;;;;0.30;0.30;;;;;;;;;;5053839;28;20052;-86
2023/10/28 14:11:26;;;;;;;0.10;0.10;;;;;;;;;;5070515;28;20471;-87
2023/10/28 14:13:52;;;;;;;0.10;0.10;;;;;;;;;;5054196;28;20048;-87
2023/10/28 14:16:18;;;;;;;0.10;0.10;;;;;;;;;;5071047;28;20068;-87
2023/10/28 14:18:50;;;;;;;0.10;0.10;;;;;;;;;;5070404;28;20041;-88
2023/10/28 14:21:20;;;;;;;0.10;0.10;;;;;;;;;;5054542;28;20049;-87
2023/10/28 14:23:49;;;;;;;0.40;0.40;;;;;;;;;;5053600;28;20048;-88
2023/10/28 14:26:15;;;;;;;0.15;0.15;;;;;;;;;;5037668;28;20079;-87
2023/10/28 14:28:41;;;;;;;0.10;0.10;;;;;;;;;;5053792;28;20039;-87
2023/10/28 14:31:07;;;;;;;0.10;0.10;;;;;;;;;;5037276;28;20365;-88
2023/10/28 14:33:33;;;;;;;0.20;0.20;;;;;;;;;;5037301;28;20127;-86
2023/10/28 14:36:06;;;;;;;0.10;0.10;;;;;;;;;;5070179;28;20048;-85
2023/10/28 14:38:32;;;;;;;0.10;0.10;;;;;;;;;;5070407;28;20128;-86
2023/10/28 14:40:59;;;;;;;0.20;0.20;;;;;;;;;;5037023;28;20048;-85